Observation data for Ralls on 02/16/2017      Previous  Date  Next       Current Mesonet Observations  Soil Data  Daily Summary Page  Observations in Plain Language
KRLS 160600Z 23006KT 01/M01 A3013 RMK A01 T00141011  RH  084%=      5-min Rain = 0
KRLS 160605Z 24007KT 01/M01 A3013 RMK A01 T00131010  RH  086%=      5-min Rain = 0
KRLS 160610Z 24007KT 02/M00 A3013 RMK A01 T00191004  RH  086%=      5-min Rain = 0
KRLS 160615Z 24008KT 02/M00 A3013 RMK A01 T00211003  RH  085%=      5-min Rain = 0
KRLS 160620Z 24009KT 03/M00 A3012 RMK A01 T00261003  RH  082%=      5-min Rain = 0
KRLS 160625Z 24009KT 03/M01 A3012 RMK A01 T00251005  RH  081%=      5-min Rain = 0
KRLS 160630Z 24008KT 03/M01 A3012 RMK A01 T00251006  RH  081%=      5-min Rain = 0
KRLS 160635Z 24009KT 02/M01 A3012 RMK A01 T00241005  RH  082%=      5-min Rain = 0
KRLS 160640Z 24009KT 03/M01 A3012 RMK A01 T00251005  RH  081%=      5-min Rain = 0
KRLS 160645Z 24008KT 02/M01 A3012 RMK A01 T00241006  RH  081%=      5-min Rain = 0
KRLS 160650Z 24008KT 02/M01 A3012 RMK A01 T00221006  RH  082%=      5-min Rain = 0
KRLS 160655Z 24008KT 02/M01 A3012 RMK A01 T00221006  RH  082%=      5-min Rain = 0
KRLS 160700Z 24007KT 02/M01 A3012 RMK A01 T00201007  RH  083%=      5-min Rain = 0
KRLS 160705Z 24008KT 02/M01 A3012 RMK A01 T00201007  RH  083%=      5-min Rain = 0
KRLS 160710Z 24009KT 02/M01 A3011 RMK A01 T00231006  RH  082%=      5-min Rain = 0
KRLS 160715Z 24010KT 03/M01 A3011 RMK A01 T00261007  RH  080%=      5-min Rain = 0
KRLS 160720Z 23010KT 03/M01 A3011 RMK A01 T00271008  RH  079%=      5-min Rain = 0
KRLS 160725Z 23009KT 03/M01 A3011 RMK A01 T00271009  RH  078%=      5-min Rain = 0
KRLS 160730Z 23009KT 03/M01 A3011 RMK A01 T00251009  RH  079%=      5-min Rain = 0
KRLS 160735Z 23009KT 02/M01 A3011 RMK A01 T00241009  RH  080%=      5-min Rain = 0
KRLS 160740Z 23009KT 02/M01 A3011 RMK A01 T00231009  RH  080%=      5-min Rain = 0
KRLS 160745Z 23009KT 02/M01 A3011 RMK A01 T00221010  RH  080%=      5-min Rain = 0
KRLS 160750Z 23010KT 02/M01 A3011 RMK A01 T00201010  RH  081%=      5-min Rain = 0
KRLS 160755Z 23009KT 02/M01 A3011 RMK A01 T00211010  RH  081%=      5-min Rain = 0
KRLS 160800Z 23007KT 02/M01 A3011 RMK A01 T00191011  RH  081%=      5-min Rain = 0
KRLS 160805Z 24006KT 01/M01 A3011 RMK A01 T00131014  RH  083%=      5-min Rain = 0
KRLS 160810Z 24008KT 02/M01 A301 RMK A01 T00161010  RH  084%=      5-min Rain = 0
KRLS 160815Z 25008KT 02/M01 A301 RMK A01 T00181009  RH  083%=      5-min Rain = 0
KRLS 160820Z 24008KT 02/M01 A301 RMK A01 T00191009  RH  082%=      5-min Rain = 0
KRLS 160825Z 24008KT 02/M01 A301 RMK A01 T00181010  RH  083%=      5-min Rain = 0
KRLS 160830Z 24008KT 02/M01 A301 RMK A01 T00171010  RH  083%=      5-min Rain = 0
KRLS 160835Z 24008KT 02/M01 A301 RMK A01 T00171010  RH  083%=      5-min Rain = 0
KRLS 160840Z 24007KT 01/M01 A301 RMK A01 T00141012  RH  084%=      5-min Rain = 0
KRLS 160845Z 24006KT 01/M01 A301 RMK A01 T00101014  RH  085%=      5-min Rain = 0
KRLS 160850Z 24006KT 01/M01 A3009 RMK A01 T00091014  RH  085%=      5-min Rain = 0
KRLS 160855Z 23007KT 01/M01 A3009 RMK A01 T00101013  RH  086%=      5-min Rain = 0
KRLS 160900Z 23007KT 01/M01 A3009 RMK A01 T00111013  RH  085%=      5-min Rain = 0
KRLS 160905Z 24007KT 01/M01 A3009 RMK A01 T00111013  RH  085%=      5-min Rain = 0
KRLS 160910Z 24007KT 01/M01 A3009 RMK A01 T00141011  RH  084%=      5-min Rain = 0
KRLS 160915Z 25008KT 02/M01 A3008 RMK A01 T00161011  RH  083%=      5-min Rain = 0
KRLS 160920Z 24008KT 02/M01 A3008 RMK A01 T00161012  RH  082%=      5-min Rain = 0
KRLS 160925Z 24009KT 02/M01 A3008 RMK A01 T00171012  RH  082%=      5-min Rain = 0
KRLS 160930Z 25007KT 02/M01 A3008 RMK A01 T00161013  RH  082%=      5-min Rain = 0
KRLS 160935Z 25007KT 02/M01 A3008 RMK A01 T00151014  RH  082%=      5-min Rain = 0
KRLS 160940Z 26007KT 01/M02 A3008 RMK A01 T00131015  RH  082%=      5-min Rain = 0
KRLS 160945Z 25007KT 01/M02 A3008 RMK A01 T00121015  RH  083%=      5-min Rain = 0
KRLS 160950Z 24008KT 01/M02 A3008 RMK A01 T00121016  RH  083%=      5-min Rain = 0
KRLS 160955Z 24008KT 01/M02 A3008 RMK A01 T00121016  RH  083%=      5-min Rain = 0
KRLS 161000Z 24008KT 01/M02 A3008 RMK A01 T00121017  RH  082%=      5-min Rain = 0
KRLS 161005Z 25007KT 01/M02 A3008 RMK A01 T00111017  RH  083%=      5-min Rain = 0
KRLS 161010Z 25007KT 01/M02 A3008 RMK A01 T00101017  RH  083%=      5-min Rain = 0
KRLS 161015Z 24007KT 01/M02 A3008 RMK A01 T00091018  RH  083%=      5-min Rain = 0
KRLS 161020Z 25007KT 01/M02 A3007 RMK A01 T00091018  RH  083%=      5-min Rain = 0
KRLS 161025Z 25007KT 01/M02 A3007 RMK A01 T00081018  RH  084%=      5-min Rain = 0
KRLS 161030Z 25007KT 01/M02 A3007 RMK A01 T00081018  RH  084%=      5-min Rain = 0
KRLS 161035Z 26007KT 01/M02 A3007 RMK A01 T00071019  RH  084%=      5-min Rain = 0
KRLS 161040Z 26007KT 01/M02 A3007 RMK A01 T00061019  RH  084%=      5-min Rain = 0
KRLS 161045Z 26006KT 01/M02 A3007 RMK A01 T00051020  RH  084%=      5-min Rain = 0
KRLS 161050Z 27005KT 01/M02 A3007 RMK A01 T00051020  RH  084%=      5-min Rain = 0
KRLS 161055Z 28005KT 00/M02 A3007 RMK A01 T00021023  RH  084%=      5-min Rain = 0
KRLS 161100Z 28005KT 00/M02 A3007 RMK A01 T00011023  RH  085%=      5-min Rain = 0
KRLS 161105Z 27005KT M00/M02 A3006 RMK A01 T10011024  RH  086%=      5-min Rain = 0
KRLS 161110Z 27005KT M00/M03 A3007 RMK A01 T10041025  RH  086%=      5-min Rain = 0
KRLS 161115Z 27005KT M00/M02 A3007 RMK A01 T10041024  RH  087%=      5-min Rain = 0
KRLS 161120Z 26005KT M01/M03 A3007 RMK A01 T10061026  RH  087%=      5-min Rain = 0
KRLS 161125Z 26005KT M01/M03 A3007 RMK A01 T10081027  RH  088%=      5-min Rain = 0
KRLS 161130Z 26004KT M01/M03 A3006 RMK A01 T10081026  RH  089%=      5-min Rain = 0
KRLS 161135Z 27004KT M01/M02 A3006 RMK A01 T10061023  RH  089%=      5-min Rain = 0
KRLS 161140Z 26005KT M01/M02 A3006 RMK A01 T10051022  RH  089%=      5-min Rain = 0
KRLS 161145Z 26005KT M01/M02 A3006 RMK A01 T10051022  RH  089%=      5-min Rain = 0
KRLS 161150Z 27005KT M00/M02 A3006 RMK A01 T10041021  RH  089%=      5-min Rain = 0
KRLS 161155Z 27005KT M01/M03 A3006 RMK A01 T10061026  RH  087%=      5-min Rain = 0
KRLS 161200Z 27005KT M01/M03 A3006 RMK A01 T10061027  RH  086%=      5-min Rain = 0
KRLS 161205Z 27005KT M01/M03 A3006 RMK A01 T10061028  RH  086%=      5-min Rain = 0
KRLS 161210Z 26005KT M01/M03 A3006 RMK A01 T10051027  RH  086%=      5-min Rain = 0
KRLS 161215Z 26006KT M00/M03 A3006 RMK A01 T10031027  RH  085%=      5-min Rain = 0
KRLS 161220Z 27005KT M00/M03 A3006 RMK A01 T10041028  RH  085%=      5-min Rain = 0
KRLS 161225Z 27005KT M00/M03 A3006 RMK A01 T10041028  RH  085%=      5-min Rain = 0
KRLS 161230Z 27005KT M01/M03 A3006 RMK A01 T10061030  RH  085%=      5-min Rain = 0
KRLS 161235Z 27005KT M01/M03 A3005 RMK A01 T10061030  RH  085%=      5-min Rain = 0
KRLS 161240Z 27005KT M01/M03 A3005 RMK A01 T10051028  RH  085%=      5-min Rain = 0
KRLS 161245Z 27005KT M01/M03 A3005 RMK A01 T10061029  RH  085%=      5-min Rain = 0
KRLS 161250Z 27005KT M01/M03 A3005 RMK A01 T10061029  RH  085%=      5-min Rain = 0
KRLS 161255Z 26005KT M01/M03 A3005 RMK A01 T10061030  RH  085%=      5-min Rain = 0
KRLS 161300Z 26005KT M01/M03 A3005 RMK A01 T10061030  RH  084%=      5-min Rain = 0
KRLS 161305Z 26005KT M01/M03 A3005 RMK A01 T10051029  RH  085%=      5-min Rain = 0
KRLS 161310Z 26005KT M01/M03 A3005 RMK A01 T10051029  RH  085%=      5-min Rain = 0
KRLS 161315Z 25006KT M01/M03 A3005 RMK A01 T10051030  RH  084%=      5-min Rain = 0
KRLS 161320Z 25007KT M00/M03 A3005 RMK A01 T10041029  RH  084%=      5-min Rain = 0
KRLS 161325Z 25007KT M00/M03 A3005 RMK A01 T10011027  RH  084%=      5-min Rain = 0
KRLS 161330Z 25008KT 00/M03 A3005 RMK A01 T00021026  RH  082%=      5-min Rain = 0
KRLS 161335Z 25008KT 00/M03 A3005 RMK A01 T00031027  RH  081%=      5-min Rain = 0
KRLS 161340Z 24009KT 01/M03 A3005 RMK A01 T00061027  RH  080%=      5-min Rain = 0
KRLS 161345Z 24009KT 01/M03 A3005 RMK A01 T00081026  RH  078%=      5-min Rain = 0
KRLS 161350Z 24010KT 01/M03 A3005 RMK A01 T00111026  RH  077%=      5-min Rain = 0
KRLS 161355Z 24009KT 01/M03 A3005 RMK A01 T00121025  RH  077%=      5-min Rain = 0
KRLS 161400Z 25009KT 01/M02 A3005 RMK A01 T00121024  RH  078%=      5-min Rain = 0
KRLS 161405Z 25008KT 01/M02 A3005 RMK A01 T00131023  RH  078%=      5-min Rain = 0
KRLS 161410Z 24008KT 02/M02 A3005 RMK A01 T00161022  RH  077%=      5-min Rain = 0
KRLS 161415Z 25008KT 02/M02 A3005 RMK A01 T00171020  RH  077%=      5-min Rain = 0
KRLS 161420Z 24008KT 02/M02 A3005 RMK A01 T00191019  RH  077%=      5-min Rain = 0
KRLS 161425Z 24008KT 02/M02 A3005 RMK A01 T00201018  RH  077%=      5-min Rain = 0
KRLS 161430Z 25008KT 02/M02 A3005 RMK A01 T00211017  RH  077%=      5-min Rain = 0
KRLS 161435Z 25009KT 02/M02 A3005 RMK A01 T00231016  RH  077%=      5-min Rain = 0
KRLS 161440Z 24009KT 03/M02 A3006 RMK A01 T00271015  RH  075%=      5-min Rain = 0
KRLS 161445Z 24009KT 03/M02 A3006 RMK A01 T00281015  RH  074%=      5-min Rain = 0
KRLS 161450Z 25009KT 03/M01 A3005 RMK A01 T00311012  RH  074%=      5-min Rain = 0
KRLS 161455Z 24011KT 04/M01 A3005 RMK A01 T00351013  RH  072%=      5-min Rain = 0
KRLS 161500Z 25011KT 04/M01 A3005 RMK A01 T00391014  RH  069%=      5-min Rain = 0
KRLS 161505Z 25011KT 04/M01 A3005 RMK A01 T00431013  RH  068%=      5-min Rain = 0
KRLS 161510Z 24011KT 05/M01 A3005 RMK A01 T00471011  RH  067%=      5-min Rain = 0
KRLS 161515Z 24011KT 05/M01 A3005 RMK A01 T00511009  RH  066%=      5-min Rain = 0
KRLS 161520Z 24012KT 05/M01 A3005 RMK A01 T00541009  RH  065%=      5-min Rain = 0
KRLS 161525Z 24013KT 06/M01 A3005 RMK A01 T00561007  RH  065%=      5-min Rain = 0
KRLS 161530Z 24014G19KT 06/M01 A3005 RMK A01 T00571007  RH  064%=      5-min Rain = 0
KRLS 161535Z 24015KT 06/M01 A3005 RMK A01 T00611006  RH  063%=      5-min Rain = 0
KRLS 161540Z 24014KT 06/M00 A3005 RMK A01 T00641003  RH  063%=      5-min Rain = 0
KRLS 161545Z 24013KT 07/00 A3004 RMK A01 T006800-0  RH  062%=      5-min Rain = 0
KRLS 161550Z 24013KT 07/M00 A3004 RMK A01 T00711001  RH  061%=      5-min Rain = 0
KRLS 161555Z 24014KT 07/M00 A3004 RMK A01 T00731002  RH  059%=      5-min Rain = 0
KRLS 161600Z 23015KT 08/M00 A3004 RMK A01 T00771001  RH  058%=      5-min Rain = 0
KRLS 161605Z 24015G20KT 08/M00 A3004 RMK A01 T00791001  RH  057%=      5-min Rain = 0
KRLS 161610Z 24017KT 08/M00 A3004 RMK A01 T00821004  RH  055%=      5-min Rain = 0
KRLS 161615Z 24016KT 08/M00 A3004 RMK A01 T00831004  RH  055%=      5-min Rain = 0
KRLS 161620Z 23015KT 09/00 A3004 RMK A01 T008500-0  RH  056%=      5-min Rain = 0
KRLS 161625Z 24013G18KT 09/01 A3004 RMK A01 T00930010  RH  057%=      5-min Rain = 0
KRLS 161630Z 24014G19KT 10/01 A3004 RMK A01 T00980009  RH  055%=      5-min Rain = 0
KRLS 161635Z 24016KT 10/00 A3004 RMK A01 T00980001  RH  051%=      5-min Rain = 0
KRLS 161640Z 24015KT 10/00 A3003 RMK A01 T01020001  RH  050%=      5-min Rain = 0
KRLS 161645Z 25015KT 10/M00 A3003 RMK A01 T01031001  RH  049%=      5-min Rain = 0
KRLS 161650Z 24017KT 11/M01 A3003 RMK A01 T01071005  RH  046%=      5-min Rain = 0
KRLS 161655Z 24017KT 11/M01 A3003 RMK A01 T01091006  RH  045%=      5-min Rain = 0
KRLS 161700Z 24014KT 11/00 A3003 RMK A01 T01120002  RH  047%=      5-min Rain = 0
KRLS 161705Z 24014KT 12/01 A3003 RMK A01 T01150005  RH  047%=      5-min Rain = 0
KRLS 161710Z 24014KT 11/00 A3003 RMK A01 T01140004  RH  047%=      5-min Rain = 0
KRLS 161715Z 24013KT 11/01 A3003 RMK A01 T01120005  RH  048%=      5-min Rain = 0
KRLS 161720Z 24013G18KT 11/01 A3003 RMK A01 T01110005  RH  048%=      5-min Rain = 0
KRLS 161725Z 24015KT 11/M01 A3003 RMK A01 T01111007  RH  044%=      5-min Rain = 0
KRLS 161730Z 24014KT 12/00 A3002 RMK A01 T01180000  RH  045%=      5-min Rain = 0
KRLS 161735Z 24014KT 12/00 A3002 RMK A01 T01220004  RH  045%=      5-min Rain = 0
KRLS 161740Z 24015KT 13/00 A3002 RMK A01 T01270000  RH  042%=      5-min Rain = 0
KRLS 161745Z 25015KT 13/00 A3002 RMK A01 T012900-0  RH  042%=      5-min Rain = 0
KRLS 161750Z 25014KT 13/00 A3002 RMK A01 T01320004  RH  042%=      5-min Rain = 0
KRLS 161755Z 24014KT 13/01 A3002 RMK A01 T01340006  RH  042%=      5-min Rain = 0
KRLS 161800Z 24014KT 14/01 A3002 RMK A01 T01360006  RH  041%=      5-min Rain = 0
KRLS 161805Z 24015KT 13/00 A3001 RMK A01 T01290001  RH  042%=      5-min Rain = 0
KRLS 161810Z 23013G18KT 12/00 A3001 RMK A01 T01240002  RH  044%=      5-min Rain = 0
KRLS 161815Z 23013KT 12/01 A3001 RMK A01 T01230010  RH  046%=      5-min Rain = 0
KRLS 161820Z 23014G19KT 12/01 A3001 RMK A01 T01200007  RH  046%=      5-min Rain = 0
KRLS 161825Z 23012G17KT 12/01 A3001 RMK A01 T01210013  RH  048%=      5-min Rain = 0
KRLS 161830Z 22013KT 13/02 A3001 RMK A01 T01260016  RH  047%=      5-min Rain = 0
KRLS 161835Z 22013KT 13/01 A30 RMK A01 T01320013  RH  045%=      5-min Rain = 0
KRLS 161840Z 22013G19KT 14/01 A30 RMK A01 T01410011  RH  042%=      5-min Rain = 0
KRLS 161845Z 23012KT 14/01 A30 RMK A01 T01430006  RH  040%=      5-min Rain = 0
KRLS 161850Z 24014KT 15/01 A2999 RMK A01 T01480006  RH  038%=      5-min Rain = 0
KRLS 161855Z 23014KT 15/01 A2999 RMK A01 T01520007  RH  038%=      5-min Rain = 0
KRLS 161900Z 23013KT 15/01 A2999 RMK A01 T01530006  RH  037%=      5-min Rain = 0
KRLS 161905Z 22013KT 15/01 A2998 RMK A01 T01540009  RH  038%=      5-min Rain = 0
KRLS 161910Z 22013G20KT 16/01 A2998 RMK A01 T01560008  RH  037%=      5-min Rain = 0
KRLS 161915Z 22015G20KT 16/00 A2998 RMK A01 T01570003  RH  036%=      5-min Rain = 0
KRLS 161920Z 22016KT 16/M01 A2997 RMK A01 T01551008  RH  033%=      5-min Rain = 0
KRLS 161925Z 22014KT 15/M00 A2997 RMK A01 T01541002  RH  035%=      5-min Rain = 0
KRLS 161930Z 23015G20KT 15/M01 A2997 RMK A01 T01491010  RH  034%=      5-min Rain = 0
KRLS 161935Z 22014G19KT 15/M01 A2997 RMK A01 T01501007  RH  034%=      5-min Rain = 0
KRLS 161940Z 22016G21KT 15/M01 A2997 RMK A01 T01501010  RH  034%=      5-min Rain = 0
KRLS 161945Z 22014G19KT 15/M01 A2996 RMK A01 T01501010  RH  034%=      5-min Rain = 0
KRLS 161950Z 22013G18KT 15/M01 A2996 RMK A01 T01491007  RH  035%=      5-min Rain = 0
KRLS 161955Z 22013KT 15/M01 A2996 RMK A01 T01461008  RH  035%=      5-min Rain = 0
KRLS 162000Z 21013KT 15/M01 A2996 RMK A01 T01471009  RH  035%=      5-min Rain = 0
KRLS 162005Z 21013G18KT 15/M00 A2995 RMK A01 T01481002  RH  036%=      5-min Rain = 0
KRLS 162010Z 22014G19KT 15/M01 A2995 RMK A01 T01471007  RH  035%=      5-min Rain = 0
KRLS 162015Z 23012G17KT 15/M00 A2995 RMK A01 T01481004  RH  036%=      5-min Rain = 0
KRLS 162020Z 23013G19KT 15/M01 A2995 RMK A01 T01501005  RH  035%=      5-min Rain = 0
KRLS 162025Z 21013G18KT 15/M00 A2995 RMK A01 T01541003  RH  035%=      5-min Rain = 0
KRLS 162030Z 22013G18KT 16/M00 A2994 RMK A01 T01561004  RH  034%=      5-min Rain = 0
KRLS 162035Z 22013KT 16/M01 A2994 RMK A01 T01591007  RH  033%=      5-min Rain = 0
KRLS 162040Z 24014G19KT 16/M01 A2994 RMK A01 T01641007  RH  031%=      5-min Rain = 0
KRLS 162045Z 22013KT 17/M01 A2994 RMK A01 T01651012  RH  030%=      5-min Rain = 0
KRLS 162050Z 22016KT 16/M02 A2994 RMK A01 T01641015  RH  030%=      5-min Rain = 0
KRLS 162055Z 23013G19KT 17/M01 A2994 RMK A01 T01671009  RH  030%=      5-min Rain = 0
KRLS 162100Z 23016KT 16/M01 A2994 RMK A01 T01591014  RH  031%=      5-min Rain = 0
KRLS 162105Z 22016KT 16/M01 A2994 RMK A01 T01551013  RH  032%=      5-min Rain = 0
KRLS 162110Z 22014G19KT 15/M01 A2994 RMK A01 T01521012  RH  033%=      5-min Rain = 0
KRLS 162115Z 22014KT 15/M01 A2993 RMK A01 T01511013  RH  033%=      5-min Rain = 0
KRLS 162120Z 22014KT 15/M01 A2993 RMK A01 T01501011  RH  034%=      5-min Rain = 0
KRLS 162125Z 23013KT 15/M01 A2993 RMK A01 T01491012  RH  034%=      5-min Rain = 0
KRLS 162130Z 22011KT 15/M00 A2993 RMK A01 T01491001  RH  036%=      5-min Rain = 0
KRLS 162135Z 21012KT 15/M00 A2993 RMK A01 T01491004  RH  035%=      5-min Rain = 0
KRLS 162140Z 21012KT 15/M00 A2993 RMK A01 T01471004  RH  036%=      5-min Rain = 0
KRLS 162145Z 20012KT 15/00 A2993 RMK A01 T01460002  RH  038%=      5-min Rain = 0
KRLS 162150Z 21011KT 14/00 A2993 RMK A01 T01440001  RH  038%=      5-min Rain = 0
KRLS 162155Z 21009KT 14/00 A2993 RMK A01 T01430004  RH  039%=      5-min Rain = 0
KRLS 162200Z 21009KT 14/00 A2993 RMK A01 T01420004  RH  039%=      5-min Rain = 0
KRLS 162205Z 20008KT 14/01 A2992 RMK A01 T01410009  RH  041%=      5-min Rain = 0
KRLS 162210Z 19007KT 14/01 A2992 RMK A01 T01410007  RH  040%=      5-min Rain = 0
KRLS 162215Z 19006KT 14/01 A2992 RMK A01 T01420009  RH  041%=      5-min Rain = 0
KRLS 162220Z 19007KT 14/01 A2992 RMK A01 T01430009  RH  040%=      5-min Rain = 0
KRLS 162225Z 18007KT 14/02 A2991 RMK A01 T01430015  RH  042%=      5-min Rain = 0
KRLS 162230Z 18007KT 15/02 A2991 RMK A01 T01470020  RH  043%=      5-min Rain = 0
KRLS 162235Z 18006KT 14/03 A2991 RMK A01 T01440027  RH  046%=      5-min Rain = 0
KRLS 162240Z 18006KT 15/03 A2991 RMK A01 T01450025  RH  045%=      5-min Rain = 0
KRLS 162245Z 18006KT 14/02 A2991 RMK A01 T01420023  RH  045%=      5-min Rain = 0
KRLS 162250Z 18006KT 14/02 A2991 RMK A01 T01410024  RH  046%=      5-min Rain = 0
KRLS 162255Z 18006KT 14/03 A2991 RMK A01 T01440030  RH  047%=      5-min Rain = 0
KRLS 162300Z 20015KT 15/02 A2991 RMK A01 T01480019  RH  042%=      5-min Rain = 0
KRLS 162305Z 20015G21KT 15/02 A2991 RMK A01 T01490021  RH  042%=      5-min Rain = 0
KRLS 162310Z 20015G20KT 15/02 A2991 RMK A01 T01480015  RH  041%=      5-min Rain = 0
KRLS 162315Z 20015KT 15/02 A2991 RMK A01 T01480015  RH  041%=      5-min Rain = 0
KRLS 162320Z 20015KT 15/01 A2991 RMK A01 T01470012  RH  040%=      5-min Rain = 0
KRLS 162325Z 20014G19KT 15/01 A2991 RMK A01 T01450008  RH  040%=      5-min Rain = 0
KRLS 162330Z 20015G21KT 14/00 A2991 RMK A01 T01420003  RH  039%=      5-min Rain = 0
KRLS 162335Z 20014KT 14/01 A2991 RMK A01 T01400006  RH  040%=      5-min Rain = 0
KRLS 162340Z 21013KT 14/01 A2991 RMK A01 T01390010  RH  042%=      5-min Rain = 0
KRLS 162345Z 21012G17KT 14/01 A2991 RMK A01 T01370007  RH  041%=      5-min Rain = 0
KRLS 162350Z 20012KT 13/01 A2991 RMK A01 T01340008  RH  043%=      5-min Rain = 0
KRLS 162355Z 20012KT 13/01 A2991 RMK A01 T01320006  RH  043%=      5-min Rain = 0
KRLS 170000Z 20011KT 13/01 A2991 RMK A01 T01270007  RH  044%=      5-min Rain = 0
KRLS 170005Z 20011KT 12/01 A2991 RMK A01 T01230008  RH  046%=      5-min Rain = 0
KRLS 170010Z 21011KT 12/01 A2991 RMK A01 T01170010  RH  048%=      5-min Rain = 0
KRLS 170015Z 21010KT 11/01 A2991 RMK A01 T01110011  RH  051%=      5-min Rain = 0
KRLS 170020Z 21009KT 11/01 A2991 RMK A01 T01060011  RH  053%=      5-min Rain = 0
KRLS 170025Z 21009KT 10/01 A2991 RMK A01 T01000012  RH  055%=      5-min Rain = 0
KRLS 170030Z 21010KT 10/01 A2991 RMK A01 T00960011  RH  056%=      5-min Rain = 0
KRLS 170035Z 21010KT 09/01 A2991 RMK A01 T00940010  RH  057%=      5-min Rain = 0
KRLS 170040Z 21010KT 09/01 A2991 RMK A01 T00920009  RH  057%=      5-min Rain = 0
KRLS 170045Z 20008KT 08/01 A2991 RMK A01 T00830005  RH  059%=      5-min Rain = 0
KRLS 170050Z 20008KT 08/01 A2991 RMK A01 T00750005  RH  062%=      5-min Rain = 0
KRLS 170055Z 20008KT 08/01 A299 RMK A01 T00790009  RH  062%=      5-min Rain = 0
KRLS 170100Z 19008KT 08/01 A299 RMK A01 T00780010  RH  063%=      5-min Rain = 0
KRLS 170105Z 19008KT 08/01 A299 RMK A01 T00760009  RH  063%=      5-min Rain = 0
KRLS 170110Z 19009KT 08/01 A299 RMK A01 T00760008  RH  063%=      5-min Rain = 0
KRLS 170115Z 19010KT 08/01 A299 RMK A01 T00780010  RH  063%=      5-min Rain = 0
KRLS 170120Z 19010KT 08/01 A299 RMK A01 T00780010  RH  063%=      5-min Rain = 0
KRLS 170125Z 19010KT 08/01 A299 RMK A01 T00780010  RH  063%=      5-min Rain = 0
KRLS 170130Z 19010KT 08/01 A299 RMK A01 T00750011  RH  064%=      5-min Rain = 0
KRLS 170135Z 19010KT 08/01 A299 RMK A01 T00770012  RH  064%=      5-min Rain = 0
KRLS 170140Z 19010KT 08/01 A299 RMK A01 T00770013  RH  065%=      5-min Rain = 0
KRLS 170145Z 19009KT 07/01 A299 RMK A01 T00720012  RH  066%=      5-min Rain = 0
KRLS 170150Z 19008KT 07/01 A299 RMK A01 T00680011  RH  068%=      5-min Rain = 0
KRLS 170155Z 20006KT 07/01 A299 RMK A01 T00650009  RH  068%=      5-min Rain = 0
KRLS 170200Z 21005KT 07/01 A299 RMK A01 T00650010  RH  069%=      5-min Rain = 0
KRLS 170205Z 21006KT 06/01 A299 RMK A01 T00640010  RH  069%=      5-min Rain = 0
KRLS 170210Z 21007KT 06/00 A299 RMK A01 T00560004  RH  070%=      5-min Rain = 0
KRLS 170215Z 20007KT 05/01 A299 RMK A01 T00520007  RH  074%=      5-min Rain = 0
KRLS 170220Z 20008KT 06/01 A299 RMK A01 T00550011  RH  074%=      5-min Rain = 0
KRLS 170225Z 20009KT 06/01 A2989 RMK A01 T00610013  RH  072%=      5-min Rain = 0
KRLS 170230Z 20008KT 06/01 A2989 RMK A01 T00590011  RH  072%=      5-min Rain = 0
KRLS 170235Z 20008KT 05/01 A2989 RMK A01 T00530009  RH  074%=      5-min Rain = 0
KRLS 170240Z 20007KT 05/01 A2989 RMK A01 T00510008  RH  075%=      5-min Rain = 0
KRLS 170245Z 20007KT 05/01 A2989 RMK A01 T00480005  RH  075%=      5-min Rain = 0
KRLS 170250Z 20006KT 05/00 A2989 RMK A01 T00470004  RH  075%=      5-min Rain = 0
KRLS 170255Z 19007KT 05/01 A2989 RMK A01 T00520006  RH  073%=      5-min Rain = 0
KRLS 170300Z 19006KT 05/00 A2989 RMK A01 T00520003  RH  071%=      5-min Rain = 0
KRLS 170305Z 19005KT 05/00 A2989 RMK A01 T00510003  RH  072%=      5-min Rain = 0
KRLS 170310Z 20006KT 05/00 A2989 RMK A01 T00530003  RH  071%=      5-min Rain = 0
KRLS 170315Z 21006KT 05/00 A2989 RMK A01 T00490000  RH  072%=      5-min Rain = 0
KRLS 170320Z 20006KT 05/00 A2989 RMK A01 T00470002  RH  073%=      5-min Rain = 0
KRLS 170325Z 20007KT 05/00 A2989 RMK A01 T00480002  RH  073%=      5-min Rain = 0
KRLS 170330Z 20007KT 05/00 A2989 RMK A01 T00480004  RH  074%=      5-min Rain = 0
KRLS 170335Z 20007KT 05/01 A2989 RMK A01 T00470005  RH  075%=      5-min Rain = 0
KRLS 170340Z 20008KT 05/01 A2989 RMK A01 T00510007  RH  075%=      5-min Rain = 0
KRLS 170345Z 20008KT 05/01 A2989 RMK A01 T00520009  RH  075%=      5-min Rain = 0
KRLS 170350Z 20007KT 05/01 A2989 RMK A01 T00510009  RH  075%=      5-min Rain = 0
KRLS 170355Z 20007KT 05/01 A2989 RMK A01 T00480008  RH  076%=      5-min Rain = 0
KRLS 170400Z 20006KT 04/01 A2989 RMK A01 T00440006  RH  077%=      5-min Rain = 0
KRLS 170405Z 20006KT 04/01 A2989 RMK A01 T00420006  RH  078%=      5-min Rain = 0
KRLS 170410Z 20006KT 04/01 A2989 RMK A01 T00420005  RH  078%=      5-min Rain = 0
KRLS 170415Z 21006KT 04/00 A2989 RMK A01 T00400004  RH  078%=      5-min Rain = 0
KRLS 170420Z 22007KT 04/00 A2989 RMK A01 T003500-0  RH  079%=      5-min Rain = 0
KRLS 170425Z 22006KT 03/M00 A2989 RMK A01 T00311002  RH  080%=      5-min Rain = 0
KRLS 170430Z 22006KT 03/00 A2989 RMK A01 T00320000  RH  080%=      5-min Rain = 0
KRLS 170435Z 22006KT 04/00 A2989 RMK A01 T00370002  RH  079%=      5-min Rain = 0
KRLS 170440Z 21007KT 04/M00 A2989 RMK A01 T00361002  RH  077%=      5-min Rain = 0
KRLS 170445Z 21007KT 04/M00 A2988 RMK A01 T00351003  RH  077%=      5-min Rain = 0
KRLS 170450Z 21008KT 04/00 A2988 RMK A01 T00420001  RH  075%=      5-min Rain = 0
KRLS 170455Z 21010KT 06/00 A2988 RMK A01 T00570003  RH  069%=      5-min Rain = 0
KRLS 170500Z 21010KT 06/00 A2988 RMK A01 T00620001  RH  066%=      5-min Rain = 0
KRLS 170505Z 21010KT 06/00 A2988 RMK A01 T00610001  RH  066%=      5-min Rain = 0
KRLS 170510Z 21009KT 06/00 A2988 RMK A01 T00590000  RH  067%=      5-min Rain = 0
KRLS 170515Z 20008KT 05/M00 A2988 RMK A01 T00521002  RH  069%=      5-min Rain = 0
KRLS 170520Z 21007KT 04/M01 A2988 RMK A01 T00441005  RH  072%=      5-min Rain = 0
KRLS 170525Z 21009KT 05/M00 A2988 RMK A01 T00461001  RH  073%=      5-min Rain = 0
KRLS 170530Z 21009KT 05/00 A2988 RMK A01 T004800-0  RH  072%=      5-min Rain = 0
KRLS 170535Z 22009KT 04/M00 A2987 RMK A01 T00441001  RH  074%=      5-min Rain = 0
KRLS 170540Z 22009KT 05/00 A2987 RMK A01 T00470001  RH  073%=      5-min Rain = 0
KRLS 170545Z 22010KT 05/00 A2987 RMK A01 T00480002  RH  073%=      5-min Rain = 0
KRLS 170550Z 22009KT 05/00 A2987 RMK A01 T00490003  RH  073%=      5-min Rain = 0
KRLS 170555Z 22009KT 05/00 A2987 RMK A01 T00490003  RH  073%=      5-min Rain = 0

Page generated in 0.0091 seconds.